createdAt,value
2022-12-18T00:01:47.901Z,-1.14
2022-12-18T00:04:20.162Z,-1.15
2022-12-18T00:06:47.025Z,-1.18
2022-12-18T00:09:15.096Z,-1.19
2022-12-18T00:11:41.797Z,-1.20
2022-12-18T00:14:09.391Z,-1.20
2022-12-18T00:16:37.985Z,-1.19
2022-12-18T00:19:05.102Z,-1.20
2022-12-18T00:21:32.620Z,-1.20
2022-12-18T00:23:59.901Z,-1.21
2022-12-18T00:26:31.205Z,-1.21
2022-12-18T00:29:02.740Z,-1.21
2022-12-18T00:31:30.876Z,-1.22
2022-12-18T00:33:57.819Z,-1.24
2022-12-18T00:36:28.955Z,-1.27
2022-12-18T00:40:13.563Z,-1.26
2022-12-18T00:42:58.780Z,-1.34
2022-12-18T00:45:30.533Z,-1.36
2022-12-18T00:47:57.910Z,-1.40
2022-12-18T00:50:25.225Z,-1.42
2022-12-18T00:52:52.064Z,-1.43
2022-12-18T00:55:18.735Z,-1.49
2022-12-18T00:57:47.291Z,-1.52
2022-12-18T01:00:14.901Z,-1.53
2022-12-18T01:02:41.949Z,-1.54
2022-12-18T01:05:08.995Z,-1.57
2022-12-18T01:07:35.794Z,-1.59
2022-12-18T01:10:03.414Z,-1.66
2022-12-18T01:12:30.071Z,-1.68
2022-12-18T01:14:56.772Z,-1.71
2022-12-18T01:17:23.491Z,-1.73
2022-12-18T01:19:50.188Z,-1.77
2022-12-18T01:22:16.927Z,-1.74
2022-12-18T01:24:45.140Z,-1.76
2022-12-18T01:27:11.809Z,-1.80
2022-12-18T01:29:39.937Z,-1.81
2022-12-18T01:32:06.682Z,-1.84
2022-12-18T01:34:33.411Z,-1.84
2022-12-18T01:37:00.097Z,-1.88
2022-12-18T01:39:26.803Z,-1.90
2022-12-18T01:42:02.613Z,-1.93
2022-12-18T01:44:57.249Z,-2.01
2022-12-18T01:47:38.507Z,-2.04
2022-12-18T01:50:12.747Z,-2.13
2022-12-18T01:52:39.520Z,-2.15
2022-12-18T01:55:06.742Z,-2.17
2022-12-18T01:57:33.530Z,-2.18
2022-12-18T02:00:01.858Z,-2.20
2022-12-18T02:02:40.616Z,-2.22
2022-12-18T02:05:08.058Z,-2.27
2022-12-18T02:07:41.138Z,-2.28
2022-12-18T02:10:15.086Z,-2.28
2022-12-18T02:13:07.304Z,-2.28
2022-12-18T02:15:40.457Z,-2.29
2022-12-18T02:18:29.453Z,-2.34
2022-12-18T02:21:06.221Z,-2.37
2022-12-18T02:23:54.239Z,-2.40
2022-12-18T02:26:32.503Z,-2.44
2022-12-18T02:29:05.800Z,-2.46
2022-12-18T02:31:36.816Z,-2.46
2022-12-18T02:34:04.326Z,-2.47
2022-12-18T02:36:35.018Z,-2.49
2022-12-18T02:39:02.030Z,-2.52
2022-12-18T02:41:29.628Z,-2.54
2022-12-18T02:43:58.637Z,-2.57
2022-12-18T02:46:38.114Z,-2.58
2022-12-18T02:49:32.488Z,-2.64
2022-12-18T02:52:12.590Z,-2.60
2022-12-18T02:55:04.733Z,-2.57
2022-12-18T02:57:38.436Z,-2.56
2022-12-18T03:00:11.775Z,-2.55
2022-12-18T03:02:58.151Z,-2.56
2022-12-18T03:05:49.907Z,-2.58
2022-12-18T03:08:19.838Z,-2.61
2022-12-18T03:10:52.187Z,-2.62
2022-12-18T03:13:26.455Z,-2.65
2022-12-18T03:15:54.302Z,-2.68
2022-12-18T03:18:27.002Z,-2.71
2022-12-18T03:20:53.739Z,-2.71
2022-12-18T03:23:37.581Z,-2.74
2022-12-18T03:26:08.727Z,-2.78
2022-12-18T03:28:39.779Z,-2.79
2022-12-18T03:31:09.181Z,-2.78
2022-12-18T03:33:40.049Z,-2.78
2022-12-18T03:36:07.643Z,-2.81
2022-12-18T03:38:34.644Z,-2.79
2022-12-18T03:41:06.284Z,-2.80
2022-12-18T03:44:08.637Z,-2.80
2022-12-18T03:47:03.310Z,-2.84
2022-12-18T03:49:36.136Z,-2.90
2022-12-18T03:52:21.576Z,-2.94
2022-12-18T03:54:49.184Z,-2.96
2022-12-18T03:57:21.592Z,-2.99
2022-12-18T03:59:57.274Z,-3.01
2022-12-18T04:02:26.356Z,-3.03
2022-12-18T04:04:54.661Z,-3.07
2022-12-18T04:07:21.922Z,-3.06
2022-12-18T04:09:49.496Z,-3.06
2022-12-18T04:12:17.405Z,-3.07
2022-12-18T04:14:44.478Z,-3.07
2022-12-18T04:17:13.512Z,-3.08
2022-12-18T04:19:40.220Z,-3.10
2022-12-18T04:22:10.393Z,-3.08
2022-12-18T04:24:39.787Z,-3.08
2022-12-18T04:27:14.985Z,-3.08
2022-12-18T04:29:46.150Z,-3.07
2022-12-18T04:32:12.807Z,-3.06
2022-12-18T04:34:39.913Z,-3.07
2022-12-18T04:37:06.748Z,-3.08
2022-12-18T04:39:33.435Z,-3.07
2022-12-18T04:42:04.436Z,-3.05
2022-12-18T04:44:31.117Z,-3.03
2022-12-18T04:46:57.780Z,-3.02
2022-12-18T04:49:24.461Z,-3.03
2022-12-18T04:51:51.119Z,-3.05
2022-12-18T04:54:20.757Z,-3.07
2022-12-18T04:56:47.535Z,-3.11
2022-12-18T04:59:14.297Z,-3.17
2022-12-18T05:01:41.109Z,-3.22
2022-12-18T05:04:08.146Z,-3.25
2022-12-18T05:06:34.913Z,-3.31
2022-12-18T05:09:01.570Z,-3.36
2022-12-18T05:11:28.278Z,-3.34
2022-12-18T05:13:57.816Z,-3.33
2022-12-18T05:16:24.530Z,-3.36
2022-12-18T05:18:51.153Z,-3.34
2022-12-18T05:21:17.803Z,-3.39
2022-12-18T05:23:44.656Z,-3.40
2022-12-18T05:26:11.376Z,-3.44
2022-12-18T05:28:38.075Z,-3.44
2022-12-18T05:31:05.195Z,-3.45
2022-12-18T05:33:34.004Z,-3.46
2022-12-18T05:36:01.770Z,-3.48
2022-12-18T05:38:28.999Z,-3.51
2022-12-18T05:40:55.808Z,-3.59
2022-12-18T05:43:25.434Z,-3.65
2022-12-18T05:45:52.291Z,-3.70
2022-12-18T05:48:19.231Z,-3.70
2022-12-18T05:50:46.603Z,-3.71
2022-12-18T05:53:14.274Z,-3.71
2022-12-18T05:55:41.433Z,-3.69
2022-12-18T05:58:08.752Z,-3.67
2022-12-18T06:00:36.829Z,-3.69
2022-12-18T06:03:03.718Z,-3.72
2022-12-18T06:05:30.455Z,-3.72
2022-12-18T06:07:57.151Z,-3.75
2022-12-18T06:10:23.884Z,-3.70
2022-12-18T06:12:50.521Z,-3.70
2022-12-18T06:15:17.276Z,-3.70
2022-12-18T06:17:43.871Z,-3.71
2022-12-18T06:20:11.404Z,-3.71
2022-12-18T06:22:38.067Z,-3.70
2022-12-18T06:25:05.285Z,-3.70
2022-12-18T06:27:31.931Z,-3.76
2022-12-18T06:29:58.601Z,-3.76
2022-12-18T06:32:25.281Z,-3.82
2022-12-18T06:34:51.944Z,-3.85
2022-12-18T06:37:18.661Z,-3.87
2022-12-18T06:39:45.352Z,-3.92
2022-12-18T06:42:12.188Z,-3.88
2022-12-18T06:44:38.895Z,-3.86
2022-12-18T06:47:05.536Z,-3.87
2022-12-18T06:49:32.224Z,-3.90
2022-12-18T06:51:59.049Z,-3.88
2022-12-18T06:54:25.672Z,-3.88
2022-12-18T06:56:52.297Z,-3.91
2022-12-18T06:59:18.955Z,-3.87
2022-12-18T07:01:45.844Z,-3.87
2022-12-18T07:04:12.686Z,-3.86
2022-12-18T07:06:39.357Z,-3.85
2022-12-18T07:09:06.048Z,-3.89
2022-12-18T07:11:36.024Z,-3.86
2022-12-18T07:14:02.667Z,-3.88
2022-12-18T07:16:29.674Z,-3.89
2022-12-18T07:18:56.539Z,-3.91
2022-12-18T07:21:23.233Z,-3.91
2022-12-18T07:23:50.037Z,-3.93
2022-12-18T07:26:18.285Z,-3.93
2022-12-18T07:28:44.964Z,-3.92
2022-12-18T07:31:19.814Z,-3.89
2022-12-18T07:33:48.465Z,-3.86
2022-12-18T07:36:15.367Z,-3.84
2022-12-18T07:38:42.167Z,-3.86
2022-12-18T07:41:12.486Z,-3.85
2022-12-18T07:43:39.616Z,-3.85
2022-12-18T07:46:07.053Z,-3.86
2022-12-18T07:48:33.770Z,-3.92
2022-12-18T07:51:05.222Z,-3.93
2022-12-18T07:53:32.311Z,-3.91
2022-12-18T07:58:53.745Z,-3.93
2022-12-18T08:01:20.537Z,-3.93
2022-12-18T08:03:48.008Z,-3.96
2022-12-18T08:06:14.984Z,-3.97
2022-12-18T08:08:43.141Z,-3.96
2022-12-18T08:11:09.989Z,-3.94
2022-12-18T08:13:36.916Z,-3.96
2022-12-18T08:16:05.696Z,-3.99
2022-12-18T08:18:33.852Z,-4.04
2022-12-18T08:21:16.043Z,-4.04
2022-12-18T08:23:43.759Z,-4.12
2022-12-18T08:26:11.952Z,-4.13
2022-12-18T08:28:38.795Z,-4.11
2022-12-18T08:31:05.591Z,-4.06
2022-12-18T08:33:32.775Z,-4.03
2022-12-18T08:35:59.768Z,-4.03
2022-12-18T08:38:26.394Z,-4.04
2022-12-18T08:41:03.404Z,-4.03
2022-12-18T08:43:48.559Z,-4.03
2022-12-18T08:46:16.631Z,-4.07
2022-12-18T08:48:43.378Z,-4.15
2022-12-18T08:51:10.694Z,-4.13
2022-12-18T08:53:38.004Z,-4.14
2022-12-18T08:56:05.566Z,-4.13
2022-12-18T08:58:32.402Z,-4.10
2022-12-18T09:01:03.087Z,-4.07
2022-12-18T09:03:29.899Z,-4.05
2022-12-18T09:05:56.590Z,-4.08
2022-12-18T09:08:23.329Z,-4.10
2022-12-18T09:10:50.961Z,-4.13
2022-12-18T09:13:17.990Z,-4.15
2022-12-18T09:15:46.372Z,-4.15
2022-12-18T09:18:13.336Z,-4.17
2022-12-18T09:20:40.071Z,-4.18
2022-12-18T09:23:07.024Z,-4.22
2022-12-18T09:25:34.248Z,-4.23
2022-12-18T09:28:01.190Z,-4.23
2022-12-18T09:30:28.495Z,-4.18
2022-12-18T09:32:55.316Z,-4.17
2022-12-18T09:35:22.034Z,-4.09
2022-12-18T09:37:48.762Z,-4.12
2022-12-18T09:40:20.362Z,-4.12
2022-12-18T09:42:49.285Z,-4.15
2022-12-18T09:45:16.263Z,-4.17
2022-12-18T09:47:42.988Z,-4.18
2022-12-18T09:50:36.847Z,-4.18
2022-12-18T09:53:07.542Z,-4.24
2022-12-18T09:55:38.002Z,-4.25
2022-12-18T09:58:27.816Z,-4.26
2022-12-18T10:00:54.745Z,-4.32
2022-12-18T10:03:21.677Z,-4.32
2022-12-18T10:06:12.627Z,-4.31
2022-12-18T10:09:04.339Z,-4.32
2022-12-18T10:11:40.925Z,-4.33
2022-12-18T10:14:31.487Z,-4.33
2022-12-18T10:17:10.221Z,-4.35
2022-12-18T10:20:21.703Z,-4.32
2022-12-18T10:22:58.362Z,-4.34
2022-12-18T10:25:43.978Z,-4.37
2022-12-18T10:28:14.948Z,-4.46
2022-12-18T10:30:42.542Z,-4.54
2022-12-18T10:33:17.068Z,-4.57
2022-12-18T10:35:44.000Z,-4.60
2022-12-18T10:38:13.309Z,-4.57
2022-12-18T10:40:51.775Z,-4.54
2022-12-18T10:43:28.530Z,-4.55
2022-12-18T10:46:18.880Z,-4.57
2022-12-18T10:48:48.620Z,-4.60
2022-12-18T10:51:27.091Z,-4.58
2022-12-18T10:54:07.505Z,-4.56
2022-12-18T10:56:37.237Z,-4.55
2022-12-18T10:59:05.966Z,-4.50
2022-12-18T11:01:56.171Z,-4.46
2022-12-18T11:04:27.629Z,-4.46
2022-12-18T11:07:03.998Z,-4.50
2022-12-18T11:09:35.372Z,-4.54
2022-12-18T11:12:07.402Z,-4.60
2022-12-18T11:14:35.802Z,-4.63
2022-12-18T11:17:24.794Z,-4.65
2022-12-18T11:19:59.478Z,-4.64
2022-12-18T11:22:30.420Z,-4.61
2022-12-18T11:25:35.378Z,-4.61
2022-12-18T11:28:42.278Z,-4.59
2022-12-18T11:31:29.041Z,-4.54
2022-12-18T11:34:30.530Z,-4.52
2022-12-18T11:36:57.370Z,-4.48
2022-12-18T11:40:09.169Z,-4.48
2022-12-18T11:43:10.756Z,-4.47
2022-12-18T11:45:49.776Z,-4.51
2022-12-18T11:48:23.489Z,-4.56
2022-12-18T11:50:52.614Z,-4.64
2022-12-18T11:53:19.493Z,-4.68
2022-12-18T11:56:25.035Z,-4.75
2022-12-18T11:59:18.873Z,-4.81
2022-12-18T12:01:50.165Z,-4.86
2022-12-18T12:04:35.466Z,-4.83
2022-12-18T12:07:22.479Z,-4.81
2022-12-18T12:09:58.049Z,-4.77
2022-12-18T12:12:28.469Z,-4.73
2022-12-18T12:15:07.109Z,-4.72
2022-12-18T12:18:11.122Z,-4.75
2022-12-18T12:21:09.005Z,-4.75
2022-12-18T12:23:42.547Z,-4.74
2022-12-18T12:26:17.730Z,-4.72
2022-12-18T12:29:03.870Z,-4.68
2022-12-18T12:31:34.251Z,-4.65
2022-12-18T12:34:11.076Z,-4.68
2022-12-18T12:36:53.004Z,-4.71
2022-12-18T12:39:22.921Z,-4.74
2022-12-18T12:42:08.291Z,-4.73
2022-12-18T12:44:39.516Z,-4.73
2022-12-18T12:47:17.886Z,-4.73
2022-12-18T12:49:48.782Z,-4.72
2022-12-18T12:52:29.800Z,-4.68
2022-12-18T12:57:32.323Z,-4.56
2022-12-18T13:00:14.555Z,-4.57
2022-12-18T13:03:04.727Z,-4.59
2022-12-18T13:05:34.473Z,-4.61
2022-12-18T13:08:07.024Z,-4.63
2022-12-18T13:10:38.867Z,-4.64
2022-12-18T13:13:06.553Z,-4.65
2022-12-18T13:15:46.284Z,-4.66
2022-12-18T13:18:23.671Z,-4.70
2022-12-18T13:20:55.172Z,-4.74
2022-12-18T13:23:25.089Z,-4.78
2022-12-18T13:25:55.626Z,-4.78
2022-12-18T13:28:25.931Z,-4.77
2022-12-18T13:30:55.891Z,-4.75
2022-12-18T13:33:24.012Z,-4.72
2022-12-18T13:36:10.802Z,-4.71
2022-12-18T13:38:41.302Z,-4.69
2022-12-18T13:41:08.607Z,-4.68
2022-12-18T13:43:45.568Z,-4.64
2022-12-18T13:46:20.265Z,-4.59
2022-12-18T13:48:54.049Z,-4.56
2022-12-18T13:51:20.791Z,-4.51
2022-12-18T13:54:05.906Z,-4.49
2022-12-18T13:56:34.021Z,-4.54
2022-12-18T13:59:12.194Z,-4.59
2022-12-18T14:02:06.901Z,-4.63
2022-12-18T14:04:35.442Z,-4.62
2022-12-18T14:07:22.145Z,-4.65
2022-12-18T14:10:06.449Z,-4.63
2022-12-18T14:12:57.421Z,-4.69
2022-12-18T14:15:30.165Z,-4.71
2022-12-18T14:18:25.065Z,-4.77
2022-12-18T14:20:53.467Z,-4.77
2022-12-18T14:23:36.546Z,-4.80
2022-12-18T14:26:06.177Z,-4.82
2022-12-18T14:28:33.039Z,-4.84
2022-12-18T14:30:59.786Z,-4.90
2022-12-18T14:33:27.196Z,-5.03
2022-12-18T14:36:01.589Z,-5.08
2022-12-18T14:38:31.910Z,-5.11
2022-12-18T14:40:59.627Z,-5.10
2022-12-18T14:43:27.921Z,-5.13
2022-12-18T14:45:54.673Z,-5.16
2022-12-18T14:48:23.439Z,-5.17
2022-12-18T14:51:00.311Z,-5.16
2022-12-18T14:53:48.954Z,-5.16
2022-12-18T14:56:22.980Z,-5.16
2022-12-18T14:58:51.498Z,-5.15
2022-12-18T15:01:23.848Z,-5.15
2022-12-18T15:03:52.120Z,-5.11
2022-12-18T15:06:26.435Z,-5.07
2022-12-18T15:08:53.227Z,-5.05
2022-12-18T15:11:30.015Z,-5.06
2022-12-18T15:13:58.936Z,-5.04
2022-12-18T15:16:25.705Z,-5.06
2022-12-18T15:18:52.352Z,-5.06
2022-12-18T15:21:20.365Z,-5.11
2022-12-18T15:23:53.161Z,-5.17
2022-12-18T15:26:21.580Z,-5.25
2022-12-18T15:28:52.230Z,-5.35
2022-12-18T15:31:31.323Z,-5.36
2022-12-18T15:34:00.002Z,-5.41
2022-12-18T15:36:27.078Z,-5.45
2022-12-18T15:38:55.783Z,-5.49
2022-12-18T15:41:35.224Z,-5.54
2022-12-18T15:44:03.068Z,-5.52
2022-12-18T15:46:32.095Z,-5.50
2022-12-18T15:49:02.128Z,-5.50
2022-12-18T15:51:36.689Z,-5.50
2022-12-18T15:54:04.958Z,-5.52
2022-12-18T15:56:50.525Z,-5.54
2022-12-18T15:59:19.348Z,-5.54
2022-12-18T16:01:50.460Z,-5.51
2022-12-18T16:04:21.002Z,-5.49
2022-12-18T16:09:34.960Z,-5.46
2022-12-18T16:12:01.646Z,-5.49
2022-12-18T16:14:29.777Z,-5.47
2022-12-18T16:16:58.240Z,-5.47
2022-12-18T16:19:25.200Z,-5.51
2022-12-18T16:21:52.345Z,-5.60
2022-12-18T16:24:20.385Z,-5.66
2022-12-18T16:26:47.089Z,-5.71
2022-12-18T16:29:13.723Z,-5.74
2022-12-18T16:31:40.529Z,-5.76
2022-12-18T16:34:22.932Z,-5.80
2022-12-18T16:36:51.694Z,-5.83
2022-12-18T16:39:18.360Z,-5.84
2022-12-18T16:41:45.144Z,-5.87
2022-12-18T16:44:11.822Z,-5.87
2022-12-18T16:46:38.992Z,-5.90
2022-12-18T16:49:05.879Z,-5.97
2022-12-18T16:51:33.705Z,-5.99
2022-12-18T16:54:00.847Z,-5.95
2022-12-18T16:56:29.640Z,-5.90
2022-12-18T16:58:57.541Z,-5.88
2022-12-18T17:01:30.139Z,-5.93
2022-12-18T17:04:01.579Z,-5.87
2022-12-18T17:06:30.473Z,-5.87
2022-12-18T17:08:58.188Z,-5.91
2022-12-18T17:11:26.317Z,-5.97
2022-12-18T17:13:54.847Z,-6.04
2022-12-18T17:16:21.773Z,-6.05
2022-12-18T17:18:48.768Z,-6.07
2022-12-18T17:21:15.530Z,-6.12
2022-12-18T17:23:43.751Z,-6.17
2022-12-18T17:26:11.716Z,-6.24
2022-12-18T17:28:39.283Z,-6.31
2022-12-18T17:31:21.114Z,-6.34
2022-12-18T17:33:50.738Z,-6.31
2022-12-18T17:36:17.572Z,-6.27
2022-12-18T17:38:44.850Z,-6.25
2022-12-18T17:41:11.702Z,-6.22
2022-12-18T17:43:45.928Z,-6.19
2022-12-18T17:46:14.482Z,-6.15
2022-12-18T17:48:41.476Z,-6.15
2022-12-18T17:51:09.617Z,-6.18
2022-12-18T17:53:39.598Z,-6.18
2022-12-18T17:56:07.644Z,-6.21
2022-12-18T17:58:36.574Z,-6.26
2022-12-18T18:01:04.254Z,-6.30
2022-12-18T18:03:32.923Z,-6.34
2022-12-18T18:06:00.485Z,-6.34
2022-12-18T18:08:27.318Z,-6.34
2022-12-18T18:10:54.079Z,-6.35
2022-12-18T18:13:47.084Z,-6.39
2022-12-18T18:16:14.138Z,-6.43
2022-12-18T18:18:40.775Z,-6.47
2022-12-18T18:21:08.086Z,-6.49
2022-12-18T18:23:35.567Z,-6.52
2022-12-18T18:26:03.923Z,-6.55
2022-12-18T18:28:31.107Z,-6.55
2022-12-18T18:30:57.773Z,-6.52
2022-12-18T18:33:24.572Z,-6.51
2022-12-18T18:35:54.833Z,-6.52
2022-12-18T18:38:21.680Z,-6.54
2022-12-18T18:40:48.383Z,-6.59
2022-12-18T18:43:15.076Z,-6.57
2022-12-18T18:45:41.739Z,-6.53
2022-12-18T18:48:10.719Z,-6.52
2022-12-18T18:50:37.439Z,-6.53
2022-12-18T18:53:04.038Z,-6.52
2022-12-18T18:55:33.376Z,-6.51
2022-12-18T18:58:00.019Z,-6.53
2022-12-18T19:00:28.059Z,-6.58
2022-12-18T19:03:00.340Z,-6.61
2022-12-18T19:05:27.425Z,-6.60
2022-12-18T19:07:54.017Z,-6.56
2022-12-18T19:10:20.712Z,-6.56
2022-12-18T19:13:06.131Z,-6.55
2022-12-18T19:15:34.234Z,-6.56
2022-12-18T19:18:01.263Z,-6.57
2022-12-18T19:20:28.409Z,-6.53
2022-12-18T19:22:58.212Z,-6.52
2022-12-18T19:25:38.552Z,-6.50
2022-12-18T19:28:08.226Z,-6.52
2022-12-18T19:30:42.507Z,-6.54
2022-12-18T19:33:33.994Z,-6.55
2022-12-18T19:35:55.960Z,-6.57
2022-12-18T19:38:22.864Z,-6.55
2022-12-18T19:40:49.941Z,-6.52
2022-12-18T19:43:16.649Z,-6.54
2022-12-18T19:45:43.440Z,-6.58
2022-12-18T19:48:10.032Z,-6.59
2022-12-18T19:50:40.793Z,-6.55
2022-12-18T19:53:07.619Z,-6.56
2022-12-18T19:55:43.336Z,-6.57
2022-12-18T19:58:11.730Z,-6.60
2022-12-18T20:00:38.341Z,-6.62
2022-12-18T20:03:16.053Z,-6.65
2022-12-18T20:05:48.575Z,-6.70
2022-12-18T20:08:15.216Z,-6.74
2022-12-18T20:10:44.774Z,-6.73
2022-12-18T20:13:11.428Z,-6.70
2022-12-18T20:15:43.391Z,-6.71
2022-12-18T20:18:12.011Z,-6.75
2022-12-18T20:20:38.683Z,-6.82
2022-12-18T20:23:06.450Z,-6.85
2022-12-18T20:25:33.074Z,-6.84
2022-12-18T20:27:59.774Z,-6.85
2022-12-18T20:30:26.609Z,-6.86
2022-12-18T20:32:53.224Z,-6.88
2022-12-18T20:35:19.949Z,-6.86
2022-12-18T20:37:48.830Z,-6.83
2022-12-18T20:40:17.608Z,-6.83
2022-12-18T20:42:44.268Z,-6.87
2022-12-18T20:45:11.013Z,-6.89
2022-12-18T20:47:37.689Z,-6.87
2022-12-18T20:50:04.608Z,-6.84
2022-12-18T20:52:31.291Z,-6.81
2022-12-18T20:55:00.404Z,-6.77
2022-12-18T20:57:27.808Z,-6.79
2022-12-18T20:59:54.464Z,-6.82
2022-12-18T21:02:21.467Z,-6.84
2022-12-18T21:04:48.627Z,-6.88
2022-12-18T21:07:15.351Z,-6.89
2022-12-18T21:09:41.942Z,-6.94
2022-12-18T21:12:35.039Z,-7.00
2022-12-18T21:15:09.609Z,-7.02
2022-12-18T21:17:40.122Z,-6.98
2022-12-18T21:20:11.981Z,-6.95
2022-12-18T21:22:44.433Z,-6.93
2022-12-18T21:25:11.060Z,-6.92
2022-12-18T21:27:37.729Z,-6.92
2022-12-18T21:30:04.903Z,-6.90
2022-12-18T21:32:33.435Z,-6.90
2022-12-18T21:35:00.306Z,-6.93
2022-12-18T21:37:27.011Z,-7.00
2022-12-18T21:39:53.823Z,-7.04
2022-12-18T21:42:39.381Z,-7.08
2022-12-18T21:45:06.427Z,-7.16
2022-12-18T21:47:33.105Z,-7.29
2022-12-18T21:49:59.804Z,-7.42
2022-12-18T21:52:32.503Z,-7.45
2022-12-18T21:55:06.584Z,-7.49
2022-12-18T21:57:35.873Z,-7.51
2022-12-18T22:00:03.058Z,-7.54
2022-12-18T22:02:38.819Z,-7.56
2022-12-18T22:05:05.874Z,-7.54
2022-12-18T22:07:32.530Z,-7.52
2022-12-18T22:09:59.310Z,-7.46
2022-12-18T22:12:44.420Z,-7.37
2022-12-18T22:15:15.518Z,-7.32
2022-12-18T22:17:49.543Z,-7.29
2022-12-18T22:20:16.333Z,-7.29
2022-12-18T22:22:43.047Z,-7.30
2022-12-18T22:25:10.647Z,-7.32
2022-12-18T22:27:37.609Z,-7.34
2022-12-18T22:30:04.893Z,-7.38
2022-12-18T22:32:32.697Z,-7.40
2022-12-18T22:35:05.839Z,-7.42
2022-12-18T22:37:33.869Z,-7.46
2022-12-18T22:40:03.113Z,-7.48
2022-12-18T22:42:31.236Z,-7.48
2022-12-18T22:44:57.941Z,-7.49
2022-12-18T22:47:29.471Z,-7.57
2022-12-18T22:49:56.920Z,-7.62
2022-12-18T22:52:23.844Z,-7.65
2022-12-18T22:54:53.271Z,-7.74
2022-12-18T22:57:21.713Z,-7.74
2022-12-18T22:59:49.444Z,-7.75
2022-12-18T23:02:17.819Z,-7.80
2022-12-18T23:04:45.034Z,-7.80
2022-12-18T23:07:11.891Z,-7.81
2022-12-18T23:09:39.582Z,-7.86
2022-12-18T23:12:06.568Z,-7.96
2022-12-18T23:14:33.376Z,-7.94
2022-12-18T23:17:00.047Z,-7.96
2022-12-18T23:19:26.736Z,-8.02
2022-12-18T23:21:54.542Z,-8.09
2022-12-18T23:24:23.320Z,-8.14
2022-12-18T23:26:49.999Z,-8.19
2022-12-18T23:29:16.628Z,-8.18
2022-12-18T23:31:43.368Z,-8.20
2022-12-18T23:34:10.519Z,-8.22
2022-12-18T23:36:45.344Z,-8.20
2022-12-18T23:39:12.862Z,-8.18
2022-12-18T23:41:55.399Z,-8.14
2022-12-18T23:44:22.031Z,-8.09
2022-12-18T23:46:48.711Z,-8.05
2022-12-18T23:49:15.612Z,-8.01
2022-12-18T23:51:42.193Z,-7.96
2022-12-18T23:54:10.245Z,-7.92
2022-12-18T23:56:36.947Z,-7.91
2022-12-18T23:59:03.567Z,-7.96
